createdAt,value
2023-03-10T00:01:12.850Z,99566.84
2023-03-10T00:03:47.679Z,99567.28
2023-03-10T00:06:23.019Z,99569.56
2023-03-10T00:08:57.331Z,99570.83
2023-03-10T00:11:31.940Z,99558.77
2023-03-10T00:14:05.351Z,99566.16
2023-03-10T00:16:38.787Z,99571.70
2023-03-10T00:19:12.358Z,99567.42
2023-03-10T00:21:46.222Z,99564.38
2023-03-10T00:24:19.743Z,99568.30
2023-03-10T00:26:54.159Z,99569.18
2023-03-10T00:29:28.172Z,99564.51
2023-03-10T00:32:01.791Z,99570.49
2023-03-10T00:34:37.690Z,99573.59
2023-03-10T00:37:10.807Z,99576.69
2023-03-10T00:39:44.429Z,99580.81
2023-03-10T00:42:17.821Z,99583.91
2023-03-10T00:44:53.470Z,99583.51
2023-03-10T00:47:28.505Z,99582.31
2023-03-10T00:50:01.982Z,99580.09
2023-03-10T00:52:36.982Z,99582.36
2023-03-10T00:55:13.775Z,99582.19
2023-03-10T00:57:47.404Z,99586.31
2023-03-10T01:00:24.599Z,99601.88
2023-03-10T01:02:58.701Z,99586.17
2023-03-10T01:05:32.388Z,99586.20
2023-03-10T01:08:05.694Z,99599.31
2023-03-10T01:10:39.137Z,99596.48
2023-03-10T01:13:14.251Z,99594.25
2023-03-10T01:15:49.302Z,99596.97
2023-03-10T01:18:23.416Z,99595.16
2023-03-10T01:20:57.785Z,99590.70
2023-03-10T01:23:32.207Z,99596.44
2023-03-10T01:26:05.343Z,99595.23
2023-03-10T01:28:38.903Z,99592.39
2023-03-10T01:31:13.345Z,99602.23
2023-03-10T01:33:49.828Z,99593.48
2023-03-10T01:36:25.967Z,99595.54
2023-03-10T01:39:00.628Z,99593.95
2023-03-10T01:41:34.773Z,99584.97
2023-03-10T01:44:14.429Z,99587.44
2023-03-10T01:46:51.358Z,99583.58
2023-03-10T01:49:40.787Z,99578.69
2023-03-10T01:52:19.686Z,99575.84
2023-03-10T01:54:59.060Z,99574.03
2023-03-10T01:57:36.558Z,99572.02
2023-03-10T02:00:15.033Z,99572.63
2023-03-10T02:02:59.270Z,99570.99
2023-03-10T02:05:33.950Z,99567.95
2023-03-10T02:08:10.668Z,99577.13
2023-03-10T02:10:44.187Z,99579.19
2023-03-10T02:13:19.613Z,99580.41
2023-03-10T02:15:54.563Z,99577.55
2023-03-10T02:18:29.977Z,99575.92
2023-03-10T02:21:11.268Z,99562.48
2023-03-10T02:24:01.011Z,99562.28
2023-03-10T02:26:44.480Z,99578.40
2023-03-10T02:29:23.805Z,99580.84
2023-03-10T02:31:58.486Z,99583.08
2023-03-10T02:34:32.996Z,99580.83
2023-03-10T02:37:06.464Z,99573.11
2023-03-10T02:39:40.088Z,99575.95
2023-03-10T02:42:15.108Z,99580.85
2023-03-10T02:44:50.220Z,99580.42
2023-03-10T02:47:24.341Z,99590.22
2023-03-10T02:49:58.336Z,99602.02
2023-03-10T02:52:36.448Z,99602.42
2023-03-10T02:55:15.991Z,99603.44
2023-03-10T02:57:50.602Z,99610.96
2023-03-10T03:00:25.635Z,99600.56
2023-03-10T03:02:59.395Z,99609.09
2023-03-10T03:05:33.142Z,99613.37
2023-03-10T03:08:08.394Z,99607.03
2023-03-10T03:10:42.378Z,99609.47
2023-03-10T03:13:17.318Z,99603.95
2023-03-10T03:15:51.393Z,99609.66
2023-03-10T03:18:25.429Z,99611.69
2023-03-10T03:20:59.417Z,99618.60
2023-03-10T03:23:32.832Z,99626.11
2023-03-10T03:26:14.906Z,99628.31
2023-03-10T03:28:48.490Z,99633.39
2023-03-10T03:31:26.893Z,99635.81
2023-03-10T03:34:12.199Z,99642.11
2023-03-10T03:36:45.926Z,99650.44
2023-03-10T03:39:21.001Z,99650.03
2023-03-10T03:41:58.677Z,99641.48
2023-03-10T03:44:35.166Z,99643.89
2023-03-10T03:47:10.687Z,99641.44
2023-03-10T03:49:44.880Z,99631.45
2023-03-10T03:52:18.266Z,99629.20
2023-03-10T03:54:51.851Z,99625.31
2023-03-10T03:57:25.984Z,99628.35
2023-03-10T04:00:00.158Z,99626.72
2023-03-10T04:02:34.674Z,99626.09
2023-03-10T04:05:10.670Z,99621.82
2023-03-10T04:07:44.692Z,99615.52
2023-03-10T04:10:21.513Z,99611.03
2023-03-10T04:12:54.957Z,99611.03
2023-03-10T04:15:29.742Z,99609.22
2023-03-10T04:18:04.411Z,99603.54
2023-03-10T04:20:38.214Z,99605.56
2023-03-10T04:23:12.425Z,99604.73
2023-03-10T04:25:48.687Z,99605.56
2023-03-10T04:28:23.181Z,99617.55
2023-03-10T04:30:57.163Z,99612.64
2023-03-10T04:33:33.245Z,99614.45
2023-03-10T04:36:08.936Z,99614.84
2023-03-10T04:38:42.697Z,99614.22
2023-03-10T04:41:17.877Z,99613.81
2023-03-10T04:43:52.494Z,99600.16
2023-03-10T04:46:26.020Z,99611.95
2023-03-10T04:48:59.694Z,99611.71
2023-03-10T04:51:33.085Z,99611.27
2023-03-10T04:54:06.684Z,99624.69
2023-03-10T04:56:40.282Z,99630.36
2023-03-10T04:59:15.117Z,99635.65
2023-03-10T05:01:48.825Z,99627.27
2023-03-10T05:04:23.149Z,99616.08
2023-03-10T05:06:57.236Z,99629.50
2023-03-10T05:09:38.235Z,99634.96
2023-03-10T05:12:13.376Z,99628.88
2023-03-10T05:14:47.762Z,99635.97
2023-03-10T05:17:21.769Z,99635.58
2023-03-10T05:19:55.241Z,99636.42
2023-03-10T05:22:28.507Z,99636.20
2023-03-10T05:25:02.228Z,99635.20
2023-03-10T05:27:37.817Z,99651.89
2023-03-10T05:30:16.211Z,99664.09
2023-03-10T05:32:52.158Z,99663.47
2023-03-10T05:35:27.230Z,99679.33
2023-03-10T17:35:29.250Z,99125.33
2023-03-10T17:38:02.950Z,99127.74
